Morris, Minnesota
Current Conditions -  °F | °C
As of 2:53 PM on Tuesday 27 Jan 2015 (Local Time) from KMOX Reporting Station
Overcast Overcast  
Wind Chill: 18°   Ceiling: 300
Heat Index: 30°   Visibility: 7mi
Dew Point: 30°   Wind: 20mph
Humidity: 100%   Direction: 160°SSE
Pressure: 30.05"   Gusts: 24mph
Location:  45.59°N, 95.91°W
Report Text: KMOX 272053Z AUTO 16017G21KT 7SM OVC003 M01/M01 A3005 RMK AO2
Loading
Personal Weather Stations






























Interactive Weather Map New forecast layout! Learn more

10-Day Weather Forecast

Advertisements
Track Severe Weather on mobile